Time;durP1;ratioP1;P1;durP2;ratioP2;P2;SDS_P1;SDS_P2;PMS_P1;PMS_P2;Temp;Humidity;BMP_temperature;BMP_pressure;BME280_temperature;BME280_humidity;BME280_pressure;Samples;Min_cycle;Max_cycle;Signal;HPM_P1;HPM_P2
2022/04/12 00:00:57;;;;;;;9.45;5.47;;;;;;;5.05;62.02;100569.00;5109997;27;20038;-32
2022/04/12 00:03:23;;;;;;;8.40;4.78;;;;;;;5.06;61.20;100578.56;5132459;27;20020;-29
2022/04/12 00:05:49;;;;;;;7.03;4.47;;;;;;;5.04;61.21;100588.50;5132333;27;20035;-29
2022/04/12 00:08:15;;;;;;;6.82;4.80;;;;;;;5.07;61.15;100582.03;5113507;27;20125;-31
2022/04/12 00:10:40;;;;;;;8.63;5.38;;;;;;;5.18;60.22;100574.56;5132626;27;20049;-35
2022/04/12 00:13:06;;;;;;;8.70;5.03;;;;;;;5.10;60.86;100574.59;5132317;27;20079;-30
2022/04/12 00:15:31;;;;;;;8.88;6.13;;;;;;;4.96;61.45;100581.41;5132177;27;20027;-29
2022/04/12 00:20:43;;;;;;;7.55;5.03;;;;;;;4.73;62.19;100560.16;5132506;27;20034;-30
2022/04/12 00:23:08;;;;;;;9.85;5.60;;;;;;;4.72;62.71;100568.25;5132084;27;20419;-29
2022/04/12 00:25:34;;;;;;;5.53;3.78;;;;;;;4.73;61.29;100578.66;5113323;27;20041;-31
2022/04/12 00:28:00;;;;;;;8.60;4.70;;;;;;;4.58;61.58;100551.28;5113308;27;20079;-33
2022/04/12 00:30:28;;;;;;;8.85;5.32;;;;;;;4.71;61.24;100578.00;5112853;27;20143;-34
2022/04/12 00:32:53;;;;;;;8.73;5.65;;;;;;;4.68;60.46;100561.66;5113422;27;20045;-30
2022/04/12 00:35:20;;;;;;;6.25;3.67;;;;;;;4.75;60.08;100575.84;5131568;27;20487;-29
2022/04/12 00:37:48;;;;;;;8.68;4.80;;;;;;;4.70;61.05;100567.59;5113240;27;20403;-32
2022/04/12 00:40:16;;;;;;;9.40;5.35;;;;;;;4.70;61.36;100572.88;5112879;27;20091;-30
2022/04/12 00:42:42;;;;;;;8.30;4.97;;;;;;;4.60;60.87;100555.41;5113025;27;20031;-29
2022/04/12 00:45:07;;;;;;;8.25;4.68;;;;;;;4.75;60.78;100584.59;5131932;27;20039;-29
2022/04/12 00:47:33;;;;;;;7.65;4.68;;;;;;;4.68;60.91;100561.66;5131463;27;20042;-29
2022/04/12 00:49:58;;;;;;;8.10;4.50;;;;;;;4.75;60.84;100567.94;5131789;27;20031;-34
2022/04/12 00:52:26;;;;;;;8.45;4.30;;;;;;;4.70;60.98;100570.22;5112703;27;20483;-30
2022/04/12 00:54:53;;;;;;;6.47;4.45;;;;;;;4.64;61.34;100577.03;5113009;27;20037;-30
2022/04/12 00:57:19;;;;;;;7.45;4.95;;;;;;;4.76;61.27;100583.63;5112515;27;20063;-30
2022/04/12 00:59:45;;;;;;;9.38;4.70;;;;;;;4.60;61.34;100578.34;5131765;27;20054;-29
2022/04/12 01:02:11;;;;;;;7.97;4.57;;;;;;;4.57;61.06;100576.03;5112615;27;20027;-29
2022/04/12 01:04:37;;;;;;;8.70;4.93;;;;;;;4.51;61.77;100584.63;5112985;27;20103;-30
2022/04/12 01:07:03;;;;;;;8.93;5.35;;;;;;;4.53;61.75;100580.00;5131684;27;20031;-33
2022/04/12 01:09:29;;;;;;;7.90;4.82;;;;;;;4.60;61.95;100581.00;5112508;27;20031;-31
2022/04/12 01:11:56;;;;;;;9.15;4.95;;;;;;;4.65;61.37;100588.41;5130439;27;20046;-29
2022/04/12 01:14:23;;;;;;;8.43;4.85;;;;;;;4.47;61.91;100570.09;5112394;27;20091;-29
2022/04/12 01:16:50;;;;;;;9.10;4.53;;;;;;;4.49;61.58;100578.69;5112803;27;20502;-31
2022/04/12 01:19:15;;;;;;;10.00;5.10;;;;;;;4.68;60.77;100581.00;5112589;27;20031;-29
2022/04/12 01:21:56;;;;;;;8.77;5.07;;;;;;;4.42;60.75;100534.47;5131070;27;20038;-28
2022/04/12 01:24:23;;;;;;;7.70;4.60;;;;;;;4.58;61.02;100577.69;5111944;27;20110;-30
2022/04/12 01:26:48;;;;;;;7.55;4.57;;;;;;;4.51;60.74;100556.41;5112432;27;20030;-30
2022/04/12 01:29:14;;;;;;;8.68;5.10;;;;;;;4.60;60.67;100565.16;5130950;27;20486;-32
2022/04/12 01:31:40;;;;;;;9.80;5.05;;;;;;;4.58;61.31;100551.28;5130882;27;20108;-33
2022/04/12 01:34:05;;;;;;;8.77;5.30;;;;;;;4.57;60.92;100578.69;5130767;27;20039;-30
2022/04/12 01:36:31;;;;;;;7.10;4.30;;;;;;;4.45;60.85;100556.25;5130560;27;20051;-29
2022/04/12 01:38:57;;;;;;;8.35;4.57;;;;;;;4.49;60.66;100579.50;5130497;27;20538;-29
2022/04/12 01:41:22;;;;;;;7.95;4.30;;;;;;;4.40;60.80;100576.06;5130938;27;20027;-29
2022/04/12 01:43:47;;;;;;;7.32;4.13;;;;;;;4.23;61.24;100569.97;5130818;27;20030;-31
2022/04/12 01:46:13;;;;;;;7.63;4.70;;;;;;;4.19;61.24;100567.81;5130399;27;20027;-30
2022/04/12 01:48:39;;;;;;;7.47;4.40;;;;;;;4.30;61.13;100583.31;5112033;27;20030;-30
2022/04/12 01:51:04;;;;;;;7.90;4.32;;;;;;;4.34;61.00;100592.56;5130197;27;20031;-29
2022/04/12 01:53:30;;;;;;;10.48;5.93;;;;;;;4.25;61.53;100575.09;5130179;27;20023;-38
2022/04/12 01:55:55;;;;;;;12.45;6.30;;;;;;;4.37;61.90;100586.97;5130468;27;20404;-28
2022/04/12 01:58:21;;;;;;;9.90;5.57;;;;;;;4.35;61.51;100588.94;5129915;27;20098;-31
2022/04/12 02:00:46;;;;;;;11.90;5.10;;;;;;;4.28;61.60;100592.41;5130609;27;20027;-29
2022/04/12 02:03:12;;;;;;;9.57;4.97;;;;;;;4.11;62.11;100586.28;5129872;27;20026;-32
2022/04/12 02:05:39;;;;;;;7.35;4.20;;;;;;;4.12;61.96;100566.81;5130067;27;20052;-29
2022/04/12 02:08:05;;;;;;;9.48;5.25;;;;;;;4.20;62.13;100587.94;5129695;27;20083;-32
2022/04/12 02:10:31;;;;;;;9.73;5.00;;;;;;;4.07;62.13;100579.69;5111278;27;20107;-29
2022/04/12 02:12:57;;;;;;;9.68;5.97;;;;;;;4.22;62.88;100591.25;5129949;27;20019;-29
2022/04/12 02:15:22;;;;;;;9.05;6.18;;;;;;;4.15;62.25;100598.19;5130217;27;20034;-29
2022/04/12 02:17:48;;;;;;;10.20;5.50;;;;;;;4.18;62.30;100582.00;5111230;27;20031;-29
2022/04/12 02:20:13;;;;;;;8.25;5.80;;;;;;;4.17;64.43;100588.28;5129652;27;20467;-34
2022/04/12 02:22:39;;;;;;;10.65;6.25;;;;;;;4.11;63.81;100576.56;5129797;27;20069;-32
2022/04/12 02:25:05;;;;;;;8.02;5.25;;;;;;;4.18;63.81;100589.91;5110355;27;20460;-29
2022/04/12 02:27:30;;;;;;;11.82;6.15;;;;;;;4.38;62.73;100585.97;5111017;27;20023;-29
2022/04/12 02:29:56;;;;;;;8.32;4.97;;;;;;;4.19;63.28;100588.94;5111091;27;20039;-30
2022/04/12 02:32:22;;;;;;;9.10;5.85;;;;;;;4.30;63.87;100596.53;5129345;27;20027;-33
2022/04/12 02:34:48;;;;;;;9.27;5.30;;;;;;;4.13;63.89;100600.97;5129384;27;20510;-29
2022/04/12 02:37:13;;;;;;;8.45;5.20;;;;;;;3.98;63.30;100598.16;5129121;27;20062;-34
2022/04/12 02:39:39;;;;;;;10.32;5.95;;;;;;;3.85;64.59;100587.25;5129955;27;20060;-31
2022/04/12 02:42:05;;;;;;;8.55;5.35;;;;;;;3.66;65.41;100587.50;5110794;27;20114;-28
2022/04/12 02:44:30;;;;;;;11.20;6.30;;;;;;;3.63;65.44;100568.38;5110749;27;20021;-31
2022/04/12 02:46:56;;;;;;;9.93;6.13;;;;;;;3.86;65.01;100595.97;5110788;27;20031;-30
2022/04/12 02:49:21;;;;;;;9.50;5.60;;;;;;;3.57;64.90;100584.03;5129358;27;20482;-29
2022/04/12 02:51:47;;;;;;;14.45;6.75;;;;;;;3.42;66.48;100586.47;5129226;27;20031;-32
2022/04/12 02:54:13;;;;;;;8.48;4.78;;;;;;;3.24;66.77;100583.09;5129082;27;20762;-30
2022/04/12 02:56:38;;;;;;;12.02;7.03;;;;;;;3.10;67.47;100582.69;5110519;27;20031;-29
2022/04/12 02:59:04;;;;;;;11.90;6.90;;;;;;;3.20;67.09;100580.75;5129633;27;20035;-29
2022/04/12 03:01:30;;;;;;;12.75;6.00;;;;;;;3.22;67.23;100591.97;5129111;27;20439;-29
2022/04/12 03:03:55;;;;;;;11.45;6.13;;;;;;;3.13;67.97;100563.94;5129012;27;20027;-29
2022/04/12 03:06:21;;;;;;;9.93;6.05;;;;;;;3.14;67.63;100599.84;5110298;27;20034;-29
2022/04/12 03:08:46;;;;;;;8.10;5.03;;;;;;;3.34;67.06;100595.16;5129188;27;20023;-29
2022/04/12 03:11:12;;;;;;;10.50;6.20;;;;;;;3.16;66.44;100582.06;5129103;27;20030;-32
2022/04/12 03:13:37;;;;;;;11.98;6.13;;;;;;;3.34;67.25;100604.88;5128939;27;20452;-29
2022/04/12 03:16:03;;;;;;;10.48;6.38;;;;;;;3.28;67.62;100605.50;5110225;27;20033;-32
2022/04/12 03:18:29;;;;;;;12.77;6.45;;;;;;;3.32;67.30;100601.59;5110100;27;20030;-29
2022/04/12 03:20:54;;;;;;;11.10;6.13;;;;;;;3.34;65.48;100583.78;5128695;27;20103;-29
2022/04/12 03:23:19;;;;;;;12.43;5.70;;;;;;;3.30;67.88;100596.47;5128622;27;20033;-30
2022/04/12 03:25:45;;;;;;;9.48;5.93;;;;;;;3.32;67.36;100601.59;5128597;27;20031;-31
2022/04/12 03:28:10;;;;;;;9.90;6.05;;;;;;;3.25;67.07;100582.94;5128520;27;20091;-30
2022/04/12 03:30:36;;;;;;;12.45;6.30;;;;;;;2.99;67.39;100577.72;5127066;27;20027;-30
2022/04/12 03:33:02;;;;;;;16.40;7.65;;;;;;;3.10;68.61;100590.59;5109918;27;20023;-32
2022/04/12 03:35:28;;;;;;;14.68;7.75;;;;;;;3.17;67.42;100606.63;5109419;27;20066;-33
2022/04/12 03:37:59;;;;;;;15.57;7.63;;;;;;;3.17;67.64;100588.19;5128524;28;20077;-29
2022/04/12 03:40:27;;;;;;;10.55;6.40;;;;;;;3.26;68.00;100603.03;5093875;28;20027;-29
2022/04/12 03:42:53;;;;;;;9.65;6.13;;;;;;;3.29;68.41;100609.78;5127104;28;20035;-29
2022/04/12 03:45:18;;;;;;;8.68;5.53;;;;;;;3.02;69.10;100611.63;5109960;28;20557;-31
2022/04/12 03:47:44;;;;;;;10.25;6.10;;;;;;;2.99;69.65;100606.69;5128536;28;20023;-30
2022/04/12 03:50:09;;;;;;;8.90;5.80;;;;;;;3.02;69.74;100611.63;5128216;28;20034;-28
2022/04/12 03:52:35;;;;;;;9.57;6.07;;;;;;;3.03;68.94;100600.13;5128711;28;20027;-30
2022/04/12 03:55:00;;;;;;;8.85;5.78;;;;;;;3.22;68.18;100613.06;5128572;28;20027;-29
2022/04/12 03:57:26;;;;;;;10.40;5.45;;;;;;;3.08;67.92;100595.19;5128397;28;20020;-33
2022/04/12 03:59:51;;;;;;;9.77;5.80;;;;;;;3.14;68.24;100615.66;5128541;28;20490;-30
2022/04/12 04:02:16;;;;;;;9.43;5.55;;;;;;;3.22;68.21;100602.50;5128235;28;20029;-29
2022/04/12 04:04:42;;;;;;;11.90;6.18;;;;;;;3.26;67.64;100597.75;5128335;28;20080;-29
2022/04/12 04:07:07;;;;;;;8.93;5.90;;;;;;;3.10;69.47;100603.78;5128505;28;20047;-30
2022/04/12 04:09:33;;;;;;;9.00;5.85;;;;;;;3.17;68.54;100622.44;5128404;28;20388;-29
2022/04/12 04:12:03;;;;;;;7.72;5.30;;;;;;;3.10;69.64;100624.84;5128655;28;20031;-34
2022/04/12 04:14:31;;;;;;;10.63;6.18;;;;;;;3.38;68.61;100611.50;5128115;28;20050;-30
2022/04/12 04:16:57;;;;;;;10.55;6.22;;;;;;;3.58;68.13;100627.88;5109739;28;20050;-29
2022/04/12 04:19:23;;;;;;;10.10;6.40;;;;;;;3.66;66.98;100624.44;5109321;28;20031;-33
2022/04/12 04:21:48;;;;;;;10.35;6.60;;;;;;;3.52;68.29;100629.34;5128293;28;20019;-29
2022/04/12 04:24:14;;;;;;;12.25;6.43;;;;;;;3.56;67.90;100628.03;5109455;28;20610;-33
2022/04/12 04:26:39;;;;;;;12.25;7.28;;;;;;;3.76;68.10;100635.69;5128314;28;20033;-29
2022/04/12 04:29:05;;;;;;;10.63;5.90;;;;;;;3.65;67.59;100639.44;5128341;28;20106;-29
2022/04/12 04:31:31;;;;;;;9.13;5.95;;;;;;;3.39;68.08;100621.03;5128106;28;20027;-30
2022/04/12 04:33:56;;;;;;;9.43;5.80;;;;;;;3.45;68.74;100638.88;5128098;28;20038;-31
2022/04/12 04:36:22;;;;;;;9.93;5.72;;;;;;;3.48;68.29;100637.75;5127657;28;20050;-31
2022/04/12 04:38:47;;;;;;;10.13;6.30;;;;;;;3.35;69.27;100632.88;5128173;28;20019;-30
2022/04/12 04:41:13;;;;;;;13.05;7.30;;;;;;;3.41;69.55;100634.88;5127896;28;20037;-32
2022/04/12 04:43:38;;;;;;;10.23;6.47;;;;;;;3.56;69.54;100638.59;5127959;28;20023;-29
2022/04/12 04:46:05;;;;;;;9.68;6.25;;;;;;;3.74;68.98;100649.06;5127812;28;20023;-29
2022/04/12 04:48:30;;;;;;;9.50;6.25;;;;;;;3.76;69.05;100648.88;5111433;27;20038;-29
2022/04/12 04:50:56;;;;;;;11.23;6.47;;;;;;;3.70;69.46;100638.94;5131821;27;20406;-30
2022/04/12 04:53:21;;;;;;;12.10;6.07;;;;;;;3.77;68.97;100632.06;5132106;27;20055;-29
2022/04/12 04:55:47;;;;;;;9.90;6.50;;;;;;;3.74;69.04;100622.66;5131649;27;20090;-30
2022/04/12 04:58:13;;;;;;;9.77;6.40;;;;;;;3.94;68.90;100631.13;5131297;27;20414;-28
2022/04/12 05:00:39;;;;;;;10.45;6.30;;;;;;;4.09;68.92;100662.19;5131422;27;20031;-30
2022/04/12 05:03:04;;;;;;;10.77;6.88;;;;;;;4.41;67.84;100666.66;5131233;27;20031;-29
2022/04/12 05:05:30;;;;;;;11.40;6.30;;;;;;;4.55;66.72;100658.09;5130342;27;20060;-30
2022/04/12 05:07:56;;;;;;;11.20;6.20;;;;;;;4.55;66.58;100670.47;5131450;27;20395;-30
2022/04/12 05:10:24;;;;;;;10.88;6.28;;;;;;;4.79;64.78;100640.59;5112807;27;20122;-30
2022/04/12 05:12:50;;;;;;;9.43;6.68;;;;;;;4.88;66.40;100644.84;5131720;27;20032;-29
2022/04/12 05:15:17;;;;;;;11.02;6.13;;;;;;;5.22;63.26;100652.56;5112697;27;20038;-32
2022/04/12 05:17:50;;;;;;;12.60;7.05;;;;;;;5.26;64.38;100658.34;5130983;27;20105;-29
2022/04/12 05:20:16;;;;;;;10.73;6.70;;;;;;;5.64;62.11;100675.25;5112397;27;20031;-31
2022/04/12 05:22:42;;;;;;;10.68;6.20;;;;;;;5.66;63.51;100671.59;5129550;27;20031;-29
2022/04/12 05:25:07;;;;;;;8.65;5.93;;;;;;;5.77;60.85;100679.16;5130913;27;20084;-29
2022/04/12 05:27:34;;;;;;;9.45;5.47;;;;;;;5.73;59.61;100668.09;5130811;27;20410;-31
2022/04/12 05:30:04;;;;;;;12.10;5.93;;;;;;;5.69;59.99;100658.84;5130628;27;20147;-32
2022/04/12 05:32:30;;;;;;;12.82;7.05;;;;;;;5.89;58.26;100675.13;5111740;27;20062;-34
2022/04/12 05:34:56;;;;;;;9.55;6.45;;;;;;;5.97;60.57;100685.72;5130901;27;20118;-32
2022/04/12 05:37:21;;;;;;;9.00;6.45;;;;;;;6.12;60.04;100677.03;5111895;27;20051;-29
2022/04/12 05:39:47;;;;;;;10.55;6.45;;;;;;;6.28;59.60;100670.81;5130854;27;20023;-35
2022/04/12 05:42:12;;;;;;;8.85;5.50;;;;;;;6.49;58.72;100678.09;5130323;27;20038;-31
2022/04/12 05:44:38;;;;;;;11.30;6.50;;;;;;;6.62;59.73;100668.56;5130715;27;20155;-32
2022/04/12 05:47:04;;;;;;;14.25;7.07;;;;;;;6.67;59.94;100653.97;5130603;27;20035;-29
2022/04/12 05:49:30;;;;;;;10.35;6.20;;;;;;;7.12;58.43;100687.50;5112043;27;20028;-29
2022/04/12 05:51:57;;;;;;;12.85;7.50;;;;;;;7.06;58.56;100669.66;5128941;27;20038;-31
2022/04/12 05:54:23;;;;;;;11.85;6.93;;;;;;;7.30;59.45;100675.75;5111487;27;20122;-33
2022/04/12 05:56:48;;;;;;;12.88;6.95;;;;;;;7.37;59.14;100666.03;5130189;27;20031;-30
2022/04/12 05:59:14;;;;;;;13.20;6.50;;;;;;;7.71;58.91;100659.34;5128528;27;20643;-30
2022/04/12 06:01:40;;;;;;;8.52;4.90;;;;;;;7.82;54.35;100677.44;5129846;27;20038;-30
2022/04/12 06:04:07;;;;;;;9.95;5.53;;;;;;;7.51;55.30;100661.72;5111576;27;20027;-29
2022/04/12 06:06:32;;;;;;;11.90;5.97;;;;;;;7.63;55.36;100682.31;5111244;27;20479;-29
2022/04/12 06:08:59;;;;;;;7.72;4.68;;;;;;;7.76;53.73;100680.81;5129900;27;20027;-29
2022/04/12 06:11:26;;;;;;;10.73;5.28;;;;;;;7.94;54.60;100678.59;5128325;27;20058;-29
2022/04/12 06:13:51;;;;;;;10.88;5.53;;;;;;;7.68;55.61;100659.69;5110988;27;20587;-32
2022/04/12 06:16:17;;;;;;;11.32;6.10;;;;;;;8.01;56.74;100682.16;5129416;27;20039;-29
2022/04/12 06:18:43;;;;;;;9.35;6.28;;;;;;;8.13;57.20;100666.56;5129638;27;20491;-29
2022/04/12 06:21:08;;;;;;;10.93;6.38;;;;;;;8.64;54.33;100689.56;5129896;27;20031;-29
2022/04/12 06:23:34;;;;;;;11.68;6.93;;;;;;;8.62;55.18;100684.47;5129512;27;20076;-32
2022/04/12 06:25:59;;;;;;;10.82;6.13;;;;;;;8.70;56.51;100682.66;5129709;27;20522;-31
2022/04/12 06:28:25;;;;;;;9.75;5.25;;;;;;;8.79;55.25;100671.72;5129203;27;20027;-33
2022/04/12 06:30:51;;;;;;;9.50;5.20;;;;;;;8.90;53.25;100682.84;5129510;27;20023;-30
2022/04/12 06:33:16;;;;;;;9.77;4.82;;;;;;;9.14;52.68;100700.22;5128043;27;20032;-30
2022/04/12 06:35:42;;;;;;;8.38;4.43;;;;;;;9.32;53.51;100686.44;5129402;27;20061;-32
2022/04/12 06:38:09;;;;;;;10.63;4.97;;;;;;;9.28;53.44;100698.47;5129579;27;20030;-29
2022/04/12 06:40:35;;;;;;;7.97;5.10;;;;;;;9.37;51.02;100689.31;5129253;27;20027;-29
2022/04/12 06:43:01;;;;;;;8.05;4.78;;;;;;;9.29;51.14;100697.44;5110674;27;20023;-31
2022/04/12 06:45:27;;;;;;;9.45;5.57;;;;;;;9.50;51.75;100684.06;5110701;27;20475;-33
2022/04/12 06:47:55;;;;;;;8.75;5.40;;;;;;;9.64;52.19;100690.28;5110871;27;20034;-29
2022/04/12 06:50:21;;;;;;;10.33;5.43;;;;;;;9.72;53.83;100687.44;5110532;27;20470;-31
2022/04/12 06:52:46;;;;;;;9.05;5.00;;;;;;;9.92;50.45;100684.06;5129057;27;20034;-30
2022/04/12 06:55:11;;;;;;;12.63;6.45;;;;;;;9.67;51.25;100676.56;5110573;27;20031;-28
2022/04/12 06:57:37;;;;;;;10.93;5.40;;;;;;;10.13;51.52;100693.75;5128837;27;20031;-29
2022/04/12 07:00:08;;;;;;;9.95;5.10;;;;;;;10.26;50.76;100696.47;5129176;27;20502;-35
2022/04/12 07:02:34;;;;;;;8.25;4.75;;;;;;;10.14;47.31;100712.22;5110482;27;20031;-29
2022/04/12 07:05:00;;;;;;;9.57;5.47;;;;;;;10.11;51.61;100696.63;5110695;27;20067;-29
2022/04/12 07:07:25;;;;;;;9.77;5.63;;;;;;;10.55;49.50;100698.00;5110306;27;20039;-32
2022/04/12 07:09:51;;;;;;;7.80;4.60;;;;;;;10.55;49.16;100706.00;5128449;27;20054;-32
2022/04/12 07:12:16;;;;;;;12.02;5.45;;;;;;;10.58;49.28;100691.41;5128302;27;20048;-30
2022/04/12 07:14:42;;;;;;;9.25;5.20;;;;;;;10.85;48.44;100701.09;5128759;27;20483;-32
2022/04/12 07:17:07;;;;;;;10.93;5.55;;;;;;;11.10;51.98;100713.00;5128869;27;20034;-32
2022/04/12 07:19:33;;;;;;;8.27;4.97;;;;;;;10.82;46.42;100685.47;5128912;27;20031;-30
2022/04/12 07:21:58;;;;;;;9.82;5.57;;;;;;;11.04;49.27;100691.44;5129136;27;20056;-29
2022/04/12 07:24:24;;;;;;;8.50;5.10;;;;;;;10.94;47.93;100698.22;5128282;27;20029;-30
2022/04/12 07:26:49;;;;;;;9.40;5.65;;;;;;;11.04;48.12;100686.09;5128484;27;20027;-30
2022/04/12 07:29:15;;;;;;;9.23;5.07;;;;;;;11.10;49.64;100700.47;5128611;27;20023;-35
2022/04/12 07:31:41;;;;;;;7.45;4.43;;;;;;;11.25;46.72;100703.72;5110217;27;20027;-30
2022/04/12 07:34:07;;;;;;;8.77;4.85;;;;;;;11.33;48.37;100693.88;5128465;27;20023;-30
2022/04/12 07:36:33;;;;;;;9.93;5.05;;;;;;;11.60;47.12;100699.97;5109250;28;20042;-29
2022/04/12 07:38:58;;;;;;;7.45;4.80;;;;;;;11.72;46.91;100703.63;5126973;27;20421;-32
2022/04/12 07:41:24;;;;;;;7.90;4.63;;;;;;;11.90;47.96;100694.16;5128438;28;20019;-30
2022/04/12 07:43:50;;;;;;;5.70;3.22;;;;;;;11.99;42.60;100708.91;5128591;28;20460;-29
2022/04/12 07:46:15;;;;;;;6.47;3.28;;;;;;;12.15;42.85;100707.59;5108387;28;20458;-28
2022/04/12 07:48:42;;;;;;;9.48;3.38;;;;;;;12.06;42.47;100694.47;5128303;28;20538;-34
2022/04/12 07:51:08;;;;;;;5.10;3.30;;;;;;;12.11;43.37;100690.34;5128293;28;20033;-28
2022/04/12 07:53:34;;;;;;;7.50;2.88;;;;;;;12.33;41.69;100699.69;5109864;28;20031;-30
2022/04/12 07:55:59;;;;;;;5.60;2.80;;;;;;;12.15;41.79;100694.22;5127977;28;20088;-29
2022/04/12 07:58:25;;;;;;;5.93;3.00;;;;;;;12.38;41.25;100699.88;5109535;28;20035;-29
2022/04/12 08:00:51;;;;;;;6.32;3.38;;;;;;;11.84;38.42;100669.06;5128443;28;20538;-33
2022/04/12 08:03:20;;;;;;;4.45;2.10;;;;;;;11.81;37.20;100691.69;5126722;28;20756;-31
2022/04/12 08:05:50;;;;;;;5.80;2.88;;;;;;;11.59;36.66;100687.66;5128275;28;20395;-33
2022/04/12 08:08:15;;;;;;;6.10;2.58;;;;;;;11.94;37.21;100688.16;5109297;28;20031;-29
2022/04/12 08:10:41;;;;;;;4.05;2.15;;;;;;;11.77;35.40;100700.31;5109543;28;20027;-30
2022/04/12 08:13:06;;;;;;;4.32;2.17;;;;;;;11.88;35.34;100698.84;5128160;28;20027;-31
2022/04/12 08:15:32;;;;;;;5.78;2.30;;;;;;;11.95;35.83;100687.16;5128378;28;20471;-29
2022/04/12 08:17:57;;;;;;;4.40;2.03;;;;;;;12.42;39.95;100695.72;5128392;28;20481;-32
2022/04/12 08:20:23;;;;;;;5.13;2.35;;;;;;;12.30;39.32;100678.72;5127674;28;20015;-29
2022/04/12 08:22:49;;;;;;;5.50;2.83;;;;;;;12.48;37.65;100690.53;5129611;27;20144;-30
2022/04/12 08:25:15;;;;;;;6.10;3.10;;;;;;;12.58;36.88;100667.59;5113030;27;20145;-35
2022/04/12 08:27:40;;;;;;;4.97;2.67;;;;;;;12.68;38.31;100664.47;5132130;27;20072;-32
2022/04/12 08:30:09;;;;;;;7.95;2.50;;;;;;;12.91;37.00;100668.38;5131945;27;20096;-29
2022/04/12 08:32:35;;;;;;;4.72;2.67;;;;;;;12.94;35.74;100679.47;5113332;27;20125;-30
2022/04/12 08:35:01;;;;;;;5.95;2.60;;;;;;;12.95;37.27;100669.59;5113181;27;20039;-29
2022/04/12 08:37:26;;;;;;;7.32;2.30;;;;;;;12.89;33.10;100668.59;5113198;27;20058;-29
2022/04/12 08:39:52;;;;;;;5.32;2.50;;;;;;;13.48;35.31;100671.75;5131588;27;20030;-33
2022/04/12 08:42:17;;;;;;;5.20;2.65;;;;;;;13.73;34.34;100660.97;5131586;27;20111;-29
2022/04/12 08:44:45;;;;;;;5.70;2.80;;;;;;;13.59;34.11;100662.19;5131988;27;20023;-31
2022/04/12 08:47:14;;;;;;;19.52;11.98;;;;;;;13.62;34.91;100649.13;5112869;27;20513;-29
2022/04/12 08:49:39;;;;;;;4.63;2.85;;;;;;;14.00;31.74;100669.50;5112835;27;20512;-29
2022/04/12 08:52:10;;;;;;;24.25;12.55;;;;;;;14.22;36.20;100644.84;5112799;27;20063;-31
2022/04/12 08:54:37;;;;;;;9.15;3.17;;;;;;;13.86;31.49;100649.25;5113133;27;20023;-32
2022/04/12 08:57:02;;;;;;;3.78;2.08;;;;;;;13.88;32.61;100655.22;5112762;27;20031;-29
2022/04/12 08:59:28;;;;;;;4.43;2.40;;;;;;;13.74;34.58;100635.78;5112991;27;20030;-30
2022/04/12 09:01:54;;;;;;;9.07;5.43;;;;;;;13.89;34.24;100632.72;5112859;27;20038;-29
2022/04/12 09:04:20;;;;;;;6.68;2.85;;;;;;;13.85;36.18;100661.03;5112776;27;20256;-29
2022/04/12 09:06:50;;;;;;;8.43;3.20;;;;;;;14.16;36.64;100641.22;5112576;27;20100;-29
2022/04/12 09:09:18;;;;;;;5.75;2.65;;;;;;;14.38;34.03;100652.22;5112806;27;20035;-32
2022/04/12 09:11:57;;;;;;;8.05;3.95;;;;;;;14.21;34.18;100651.25;5129886;27;20035;-34
2022/04/12 09:14:25;;;;;;;13.45;5.43;;;;;;;14.06;32.14;100644.44;5112567;27;20034;-29
2022/04/12 09:16:52;;;;;;;25.77;6.85;;;;;;;13.84;33.49;100651.34;5130950;27;20601;-30
2022/04/12 09:19:38;;;;;;;19.35;5.65;;;;;;;14.01;32.14;100652.34;5129277;27;20030;-32
2022/04/12 09:22:18;;;;;;;4.40;2.10;;;;;;;13.70;30.70;100642.66;5112512;27;20019;-32
2022/04/12 09:24:54;;;;;;;4.45;2.30;;;;;;;14.00;33.09;100628.47;5131027;27;20031;-29
2022/04/12 09:27:31;;;;;;;4.28;1.98;;;;;;;14.61;30.79;100656.06;5112371;27;20160;-31
2022/04/12 09:30:03;;;;;;;7.05;3.83;;;;;;;14.11;33.94;100651.00;5130635;27;20536;-29
2022/04/12 09:32:34;;;;;;;5.45;2.75;;;;;;;14.01;31.39;100641.63;5112009;27;20024;-30
2022/04/12 09:34:59;;;;;;;5.43;2.55;;;;;;;14.35;32.95;100633.13;5130557;27;20046;-29
2022/04/12 09:37:26;;;;;;;25.23;15.63;;;;;;;14.32;32.72;100637.06;5130594;27;20039;-30
2022/04/12 09:39:54;;;;;;;22.60;14.70;;;;;;;14.32;30.59;100631.69;5112094;27;20118;-32
2022/04/12 09:42:41;;;;;;;5.70;2.55;;;;;;;14.95;25.66;100653.63;5111465;27;20574;-30
2022/04/12 09:45:08;;;;;;;15.68;6.80;;;;;;;15.14;27.98;100628.31;5130766;27;20031;-32
2022/04/12 09:47:34;;;;;;;12.32;6.20;;;;;;;15.57;28.78;100627.03;5111863;27;20027;-29
2022/04/12 09:50:00;;;;;;;17.35;8.07;;;;;;;15.13;30.51;100632.03;5130419;27;20031;-31
2022/04/12 09:52:29;;;;;;;8.13;3.72;;;;;;;14.72;32.43;100617.66;5111400;27;20027;-29
2022/04/12 09:54:55;;;;;;;4.85;2.53;;;;;;;14.48;30.13;100608.75;5111829;27;20593;-32
2022/04/12 09:57:23;;;;;;;5.00;2.55;;;;;;;14.80;32.04;100614.63;5111785;27;20027;-30
2022/04/12 09:59:49;;;;;;;14.18;7.63;;;;;;;15.41;30.24;100614.34;5130405;27;20027;-29
2022/04/12 10:02:15;;;;;;;8.82;3.92;;;;;;;15.12;33.82;100603.53;5129962;27;20403;-31
2022/04/12 10:04:43;;;;;;;11.48;5.78;;;;;;;15.18;30.75;100609.81;5130154;27;20110;-32
2022/04/12 10:07:11;;;;;;;9.55;5.05;;;;;;;15.51;32.66;100595.75;5111298;27;20159;-30
2022/04/12 10:09:40;;;;;;;5.43;2.97;;;;;;;15.87;28.21;100585.69;5129935;27;20519;-33
2022/04/12 10:12:08;;;;;;;8.88;4.53;;;;;;;15.27;31.55;100581.53;5130113;27;20066;-29
2022/04/12 10:14:35;;;;;;;6.93;3.13;;;;;;;15.62;32.00;100573.38;5111383;27;20023;-29
2022/04/12 10:17:00;;;;;;;6.22;2.50;;;;;;;15.50;32.05;100591.41;5130150;27;20102;-31
2022/04/12 10:19:27;;;;;;;7.95;3.80;;;;;;;15.37;31.24;100572.88;5129814;27;20106;-29
2022/04/12 10:21:52;;;;;;;19.25;8.18;;;;;;;15.74;31.06;100572.53;5111151;27;20027;-30
2022/04/12 10:24:19;;;;;;;9.57;4.30;;;;;;;16.08;33.71;100568.06;5129374;27;20027;-33
2022/04/12 10:26:46;;;;;;;11.68;4.82;;;;;;;16.19;30.69;100553.69;5111323;27;20027;-31
2022/04/12 10:29:13;;;;;;;15.50;7.85;;;;;;;16.32;31.11;100547.16;5129722;27;20042;-29
2022/04/12 10:31:54;;;;;;;11.68;4.97;;;;;;;16.89;32.74;100562.31;5110969;27;20069;-34
2022/04/12 10:34:19;;;;;;;7.70;3.38;;;;;;;17.00;29.07;100542.53;5129568;27;20102;-30
2022/04/12 10:37:00;;;;;;;15.80;6.55;;;;;;;16.62;34.20;100546.00;5110466;27;20499;-30
2022/04/12 10:39:37;;;;;;;4.93;2.20;;;;;;;16.01;30.13;100557.41;5111024;27;20117;-30
2022/04/12 10:42:14;;;;;;;3.63;2.15;;;;;;;15.83;31.72;100531.59;5111006;27;20057;-32
2022/04/12 10:44:42;;;;;;;21.15;9.43;;;;;;;16.32;32.92;100530.22;5128515;27;20444;-34
2022/04/12 10:47:34;;;;;;;13.13;6.43;;;;;;;16.62;32.18;100527.16;5129250;27;20543;-31
2022/04/12 10:50:06;;;;;;;4.85;2.65;;;;;;;16.77;29.19;100537.31;5110673;27;20412;-30
2022/04/12 10:52:52;;;;;;;6.72;2.70;;;;;;;17.22;27.45;100526.38;5129014;27;20384;-33
2022/04/12 10:55:23;;;;;;;6.93;2.80;;;;;;;17.59;29.72;100520.28;5128410;27;20031;-29
2022/04/12 10:57:50;;;;;;;25.65;11.35;;;;;;;17.05;30.70;100501.34;5110512;27;20031;-30
2022/04/12 11:00:16;;;;;;;23.30;9.32;;;;;;;17.39;29.68;100506.59;5128769;27;20829;-29
2022/04/12 11:03:00;;;;;;;12.70;5.60;;;;;;;16.59;30.97;100517.72;5129393;27;20099;-30
2022/04/12 11:05:42;;;;;;;22.85;11.00;;;;;;;16.73;29.51;100515.44;5110299;27;20051;-33
2022/04/12 11:08:13;;;;;;;7.80;3.92;;;;;;;17.34;30.42;100495.75;5110439;27;20118;-30
2022/04/12 11:10:59;;;;;;;11.65;4.60;;;;;;;17.90;29.74;100501.72;5129079;27;20118;-33
2022/04/12 11:13:28;;;;;;;13.18;6.00;;;;;;;17.21;30.63;100503.16;5128101;27;20073;-32
2022/04/12 11:15:56;;;;;;;15.85;5.43;;;;;;;17.63;30.00;100494.44;5110239;27;20680;-30
2022/04/12 11:18:21;;;;;;;4.78;2.47;;;;;;;17.57;29.79;100502.72;5128645;27;20035;-29
2022/04/12 11:21:02;;;;;;;10.60;4.30;;;;;;;17.69;31.28;100506.06;5129011;27;20031;-32
2022/04/12 11:23:48;;;;;;;9.10;4.03;;;;;;;17.44;27.86;100488.56;5110229;27;20038;-31
2022/04/12 11:26:33;;;;;;;4.88;2.78;;;;;;;17.27;30.49;100483.28;5128525;27;20027;-32
2022/04/12 11:28:58;;;;;;;20.92;8.50;;;;;;;17.32;29.45;100479.81;5129194;27;20039;-29